Time;durP1;ratioP1;P1;durP2;ratioP2;P2;SDS_P1;SDS_P2;PMS_P1;PMS_P2;Temp;Humidity;BMP_temperature;BMP_pressure;BME280_temperature;BME280_humidity;BME280_pressure;Samples;Min_cycle;Max_cycle;Signal;HPM_P1;HPM_P2
2022/08/25 00:01:57;;;;;;;9.13;4.40;;;;;;;20.87;84.77;101377.75;5007741;28;20057;-64
2022/08/25 00:04:24;;;;;;;7.32;3.75;;;;;;;20.84;84.59;101376.19;5007067;28;20054;-65
2022/08/25 00:06:54;;;;;;;6.88;4.20;;;;;;;20.82;84.52;101383.53;5009166;28;20466;-65
2022/08/25 00:09:26;;;;;;;9.05;5.25;;;;;;;20.84;83.84;101378.88;5008152;28;20053;-65
2022/08/25 00:11:54;;;;;;;8.98;4.63;;;;;;;20.79;86.08;101382.94;4991120;28;20054;-65
2022/08/25 00:14:24;;;;;;;11.40;5.78;;;;;;;20.74;85.96;101376.19;5009342;28;20485;-65
2022/08/25 00:16:52;;;;;;;9.60;5.05;;;;;;;20.70;85.07;101376.59;5012421;28;20057;-65
2022/08/25 00:19:26;;;;;;;8.23;4.18;;;;;;;20.68;84.87;101375.91;5000964;28;20427;-65
2022/08/25 00:21:54;;;;;;;6.75;4.30;;;;;;;20.69;83.81;101373.06;5007933;28;20066;-66
2022/08/25 00:24:22;;;;;;;8.07;4.63;;;;;;;20.67;84.09;101372.38;5007044;28;20065;-63
2022/08/25 00:26:51;;;;;;;11.55;4.53;;;;;;;20.65;84.17;101362.78;5010956;28;20065;-64
2022/08/25 00:29:19;;;;;;;5.80;4.13;;;;;;;20.65;84.05;101368.13;5006929;28;20066;-64
2022/08/25 00:31:46;;;;;;;7.13;4.20;;;;;;;20.66;84.07;101362.63;5006673;28;20057;-64
2022/08/25 00:34:17;;;;;;;9.90;4.90;;;;;;;20.69;83.74;101353.50;5004136;28;20678;-64
2022/08/25 00:36:46;;;;;;;5.95;4.28;;;;;;;20.66;83.26;101364.47;4999867;28;20065;-65
2022/08/25 00:39:13;;;;;;;7.35;5.07;;;;;;;20.64;82.70;101355.75;5000198;28;20054;-64
2022/08/25 00:41:41;;;;;;;7.78;4.53;;;;;;;20.56;84.28;101356.44;4999394;28;20084;-65
2022/08/25 00:44:11;;;;;;;9.68;4.15;;;;;;;20.55;84.09;101352.06;5008171;28;20065;-64
2022/08/25 00:46:43;;;;;;;9.02;3.70;;;;;;;20.55;83.67;101362.78;4998796;28;20122;-65
2022/08/25 00:49:14;;;;;;;8.43;4.70;;;;;;;20.56;83.14;101355.59;5008945;28;20049;-64
2022/08/25 00:51:58;;;;;;;9.80;4.60;;;;;;;20.55;82.96;101356.56;4990327;28;20502;-64
2022/08/25 00:54:33;;;;;;;8.52;4.70;;;;;;;20.54;82.75;101355.72;4990495;28;20562;-64
2022/08/25 00:57:00;;;;;;;;;;;;;;;20.56;83.04;101353.75;4973155;28;20058;-63
2022/08/25 00:59:28;;;;;;;9.13;5.10;;;;;;;20.55;83.10;101360.09;4988471;28;19929;-65
2022/08/25 01:01:57;;;;;;;11.27;5.43;;;;;;;20.54;84.24;101360.25;4987738;28;20053;-64
2022/08/25 01:04:25;;;;;;;8.80;5.05;;;;;;;20.42;85.06;101356.78;5003128;28;20053;-64
2022/08/25 01:06:54;;;;;;;5.88;4.43;;;;;;;20.36;85.81;101362.69;5004034;28;20406;-65
2022/08/25 01:09:21;;;;;;;8.88;4.72;;;;;;;20.32;86.48;101366.63;5003372;28;20533;-64
2022/08/25 01:11:48;;;;;;;10.00;5.32;;;;;;;20.29;86.22;101370.41;5002027;28;20046;-65
2022/08/25 01:14:18;;;;;;;10.52;5.00;;;;;;;20.22;87.53;101367.44;5006690;28;20422;-64
2022/08/25 01:16:45;;;;;;;9.10;4.93;;;;;;;20.22;88.18;101358.56;5004623;28;20062;-64
2022/08/25 01:19:17;;;;;;;8.27;5.00;;;;;;;20.21;87.44;101362.19;5002789;28;20049;-63
2022/08/25 01:21:47;;;;;;;10.73;5.13;;;;;;;20.21;86.87;101354.19;5002144;28;20517;-64
2022/08/25 01:24:23;;;;;;;8.95;5.50;;;;;;;20.22;86.83;101355.88;5006371;28;20332;-65
2022/08/25 01:26:50;;;;;;;8.93;5.20;;;;;;;20.18;87.43;101354.47;4972494;28;20046;-64
2022/08/25 01:29:21;;;;;;;8.20;5.88;;;;;;;20.16;86.95;101359.94;5006176;28;20545;-65
2022/08/25 01:31:50;;;;;;;8.43;5.43;;;;;;;20.12;87.45;101355.81;5002189;28;20060;-64
2022/08/25 01:34:18;;;;;;;12.18;4.80;;;;;;;20.13;86.88;101354.03;5000927;28;20042;-64
2022/08/25 01:36:46;;;;;;;6.50;4.90;;;;;;;20.13;86.52;101357.53;5002114;28;20134;-65
2022/08/25 01:39:13;;;;;;;6.38;4.63;;;;;;;20.12;85.90;101358.50;5012430;28;20065;-64
2022/08/25 01:42:10;;;;;;;9.30;5.18;;;;;;;20.11;86.07;101358.66;4998342;28;20042;-64
2022/08/25 01:44:40;;;;;;;7.82;4.93;;;;;;;20.09;85.96;101361.47;5000772;28;20502;-65
2022/08/25 01:47:08;;;;;;;10.00;5.38;;;;;;;20.05;86.79;101359.19;5004074;28;20452;-64
2022/08/25 01:49:35;;;;;;;9.48;4.85;;;;;;;20.02;86.61;101362.97;4988736;28;20042;-64
2022/08/25 01:52:11;;;;;;;10.35;4.30;;;;;;;20.03;86.02;101353.97;5003888;28;20532;-65
2022/08/25 01:54:38;;;;;;;9.07;5.55;;;;;;;20.05;86.74;101353.84;5002543;28;20545;-65
2022/08/25 01:57:05;;;;;;;10.98;5.72;;;;;;;20.00;87.45;101353.41;5006418;28;20050;-64
2022/08/25 01:59:33;;;;;;;14.52;5.88;;;;;;;19.95;88.12;101356.47;5003096;28;20042;-64
2022/08/25 02:02:00;;;;;;;10.88;5.60;;;;;;;19.92;88.16;101349.56;5001628;28;20060;-64
2022/08/25 02:04:31;;;;;;;9.63;5.68;;;;;;;19.91;87.85;101350.53;5004764;28;20494;-64
2022/08/25 02:07:00;;;;;;;10.85;5.28;;;;;;;19.88;90.22;101344.63;4998046;28;20857;-65
2022/08/25 02:09:27;;;;;;;8.32;5.40;;;;;;;19.86;89.22;101344.75;5004009;28;20058;-64
2022/08/25 02:11:55;;;;;;;11.95;5.95;;;;;;;19.88;89.60;101347.28;4999988;28;20050;-65
2022/08/25 02:14:22;;;;;;;9.90;5.45;;;;;;;19.86;88.61;101351.94;5000480;28;20551;-64
2022/08/25 02:16:51;;;;;;;7.07;4.90;;;;;;;19.86;88.06;101349.25;5002404;28;20648;-64
2022/08/25 02:19:20;;;;;;;9.20;5.85;;;;;;;19.86;87.34;101342.09;5003496;28;20054;-65
2022/08/25 02:21:48;;;;;;;9.15;4.85;;;;;;;19.84;87.59;101341.34;5002903;28;20050;-64
2022/08/25 02:24:16;;;;;;;9.70;5.50;;;;;;;19.84;88.26;101336.00;5000621;28;20057;-64
2022/08/25 02:26:43;;;;;;;9.40;5.95;;;;;;;19.80;87.70;101331.91;5001869;28;20062;-64
2022/08/25 02:29:10;;;;;;;11.35;6.43;;;;;;;19.77;87.57;101332.19;5002508;28;20045;-64
2022/08/25 02:31:38;;;;;;;12.00;6.07;;;;;;;19.76;87.50;101330.47;5002515;28;20046;-63
2022/08/25 02:34:05;;;;;;;11.73;7.35;;;;;;;19.75;87.95;101335.97;4998312;28;20142;-64
2022/08/25 02:36:33;;;;;;;9.38;5.38;;;;;;;19.74;87.38;101327.09;5005548;28;20058;-64
2022/08/25 02:39:00;;;;;;;10.65;6.68;;;;;;;19.74;87.45;101327.09;5017431;23;20953;-65
2022/08/25 02:41:32;;;;;;;11.38;6.30;;;;;;;19.71;88.77;101322.03;5002071;28;20058;-64
2022/08/25 02:44:01;;;;;;;11.68;6.60;;;;;;;19.68;88.26;101319.63;5004481;28;20625;-64
2022/08/25 02:46:28;;;;;;;8.52;5.38;;;;;;;19.64;88.30;101315.53;4981776;28;20041;-64
2022/08/25 02:48:55;;;;;;;13.75;5.78;;;;;;;19.67;88.63;101323.25;5006241;28;20054;-64
2022/08/25 02:51:24;;;;;;;12.45;6.57;;;;;;;19.71;88.07;101322.03;5006073;28;20056;-61
2022/08/25 02:53:51;;;;;;;9.82;6.15;;;;;;;19.68;88.19;101323.16;4987810;28;20049;-62
2022/08/25 02:56:19;;;;;;;10.20;5.82;;;;;;;19.66;88.60;101322.41;5000459;28;20057;-62
2022/08/25 02:58:46;;;;;;;12.30;7.18;;;;;;;19.67;88.49;101318.75;5004640;28;20064;-63
2022/08/25 03:01:14;;;;;;;10.98;6.15;;;;;;;19.62;88.70;101321.00;5006615;28;20149;-64
2022/08/25 03:03:43;;;;;;;8.13;5.43;;;;;;;19.60;88.99;101312.28;5006056;28;20145;-63
2022/08/25 03:06:13;;;;;;;11.07;6.15;;;;;;;19.60;90.71;101317.63;5001809;28;20052;-61
2022/08/25 03:08:41;;;;;;;8.20;5.03;;;;;;;19.50;91.60;101316.69;5004424;28;20054;-64
2022/08/25 03:11:08;;;;;;;9.13;5.78;;;;;;;19.47;91.12;101311.59;5004670;28;20054;-64
2022/08/25 03:13:36;;;;;;;12.98;6.22;;;;;;;19.50;89.85;101306.00;5002102;28;20069;-65
2022/08/25 03:16:05;;;;;;;14.27;6.55;;;;;;;19.49;89.44;101307.81;5000793;28;20053;-64
2022/08/25 03:18:38;;;;;;;11.50;5.47;;;;;;;19.51;88.99;101304.19;5003446;28;20057;-64
2022/08/25 03:21:06;;;;;;;11.85;7.20;;;;;;;19.50;88.61;101303.34;4997809;28;20048;-63
2022/08/25 03:23:33;;;;;;;10.93;6.38;;;;;;;19.47;89.78;101298.25;4997836;28;20054;-64
2022/08/25 03:28:46;;;;;;;;;;;;;;;19.43;90.63;101299.50;5000136;28;20073;-65
2022/08/25 03:31:13;;;;;;;15.90;7.93;;;;;;;19.36;94.01;101293.84;5002376;28;20334;-63
2022/08/25 03:33:41;;;;;;;13.13;6.65;;;;;;;19.28;93.99;101295.47;5000201;28;20073;-64
2022/08/25 03:36:11;;;;;;;10.13;6.47;;;;;;;19.32;92.84;101291.53;4999670;28;20046;-62
2022/08/25 03:38:39;;;;;;;10.93;5.30;;;;;;;19.34;91.99;101285.09;5002251;28;20062;-63
2022/08/25 03:41:18;;;;;;;11.57;5.82;;;;;;;19.34;91.80;101285.09;5000104;28;20550;-63
2022/08/25 03:43:46;;;;;;;10.85;6.18;;;;;;;19.36;90.67;101288.50;5000709;28;20050;-63
2022/08/25 03:46:21;;;;;;;12.00;7.53;;;;;;;19.38;90.40;101291.03;4981729;28;20041;-63
2022/08/25 03:48:48;;;;;;;14.43;6.85;;;;;;;19.38;91.54;101291.03;5000800;28;20054;-63
2022/08/25 03:51:25;;;;;;;10.73;6.25;;;;;;;19.41;91.02;101290.78;5004789;28;20057;-64
2022/08/25 03:53:53;;;;;;;10.50;6.20;;;;;;;19.37;90.33;101286.69;5002812;28;20061;-63
2022/08/25 03:56:20;;;;;;;7.60;6.50;;;;;;;19.35;90.13;101281.44;4999649;28;20050;-63
2022/08/25 03:58:47;;;;;;;15.65;8.07;;;;;;;19.28;93.91;101282.13;5005433;28;20063;-63
2022/08/25 04:01:15;;;;;;;11.80;7.10;;;;;;;19.19;94.11;101291.75;5004880;28;20049;-63
2022/08/25 04:03:45;;;;;;;10.82;7.75;;;;;;;19.16;93.43;101292.00;5005429;28;20077;-63
2022/08/25 04:06:13;;;;;;;18.70;8.85;;;;;;;19.14;93.36;101284.13;4986925;28;20079;-62
2022/08/25 04:08:40;;;;;;;16.92;10.10;;;;;;;19.11;95.16;101295.06;4987762;28;20068;-63
2022/08/25 04:11:14;;;;;;;11.23;6.97;;;;;;;19.07;95.70;101303.44;4995255;28;20057;-64
2022/08/25 04:13:42;;;;;;;10.17;7.67;;;;;;;19.10;94.69;101300.53;4999476;28;20157;-62
2022/08/25 04:16:20;;;;;;;13.82;9.55;;;;;;;19.14;93.68;101309.97;5004035;28;20053;-63
2022/08/25 04:18:48;;;;;;;14.45;10.38;;;;;;;19.15;93.10;101307.19;5005976;28;20064;-63
2022/08/25 04:21:16;;;;;;;12.00;8.77;;;;;;;19.15;92.89;101309.84;5003164;28;20379;-62
2022/08/25 04:23:44;;;;;;;16.00;12.13;;;;;;;19.17;93.01;101299.88;4988204;28;20062;-64
2022/08/25 04:26:15;;;;;;;16.60;10.35;;;;;;;19.14;93.51;101308.16;5005462;28;20119;-64
2022/08/25 04:28:42;;;;;;;16.35;11.23;;;;;;;19.15;93.35;101311.66;4988446;28;20133;-61
2022/08/25 04:31:11;;;;;;;15.85;12.85;;;;;;;19.15;93.85;101319.69;5002593;28;20065;-63
2022/08/25 04:33:38;;;;;;;17.45;13.10;;;;;;;19.12;94.23;101322.59;5006003;28;20054;-62
2022/08/25 04:36:07;;;;;;;22.67;14.13;;;;;;;19.14;93.74;101318.84;4998706;28;20505;-65
2022/08/25 04:38:40;;;;;;;16.23;11.98;;;;;;;19.11;94.87;101315.56;4984163;28;20069;-62
2022/08/25 04:41:09;;;;;;;13.57;11.63;;;;;;;19.15;94.01;101317.00;5000162;28;20050;-62
2022/08/25 04:43:37;;;;;;;16.05;12.00;;;;;;;19.21;93.60;101320.00;5002091;28;20399;-62
2022/08/25 04:46:29;;;;;;;16.33;12.32;;;;;;;19.24;92.78;101310.88;5002850;28;20053;-61
2022/08/25 04:48:58;;;;;;;17.17;11.50;;;;;;;19.26;93.73;101316.94;5006902;28;20072;-63
2022/08/25 04:51:29;;;;;;;17.05;12.55;;;;;;;19.22;94.30;101312.81;5002689;28;20427;-64
2022/08/25 04:53:59;;;;;;;15.43;11.23;;;;;;;19.26;94.14;101306.25;5001700;28;20066;-62
2022/08/25 04:56:27;;;;;;;17.27;12.25;;;;;;;19.31;93.99;101306.72;5004950;28;20454;-63
2022/08/25 04:58:55;;;;;;;21.13;13.35;;;;;;;19.30;94.88;101312.19;5007942;28;20068;-61
2022/08/25 05:01:24;;;;;;;19.90;11.10;;;;;;;19.31;95.98;101309.38;4986853;28;20151;-64
2022/08/25 05:03:54;;;;;;;9.85;8.73;;;;;;;19.34;94.88;101313.63;4984484;28;20410;-62
2022/08/25 05:06:22;;;;;;;13.75;10.45;;;;;;;19.37;94.08;101311.53;4988175;28;20102;-63
2022/08/25 05:08:50;;;;;;;17.13;12.27;;;;;;;19.39;94.13;101298.91;5004683;28;20950;-64
2022/08/25 05:11:18;;;;;;;15.57;10.85;;;;;;;19.43;95.39;101310.16;5001425;28;20049;-62
2022/08/25 05:13:50;;;;;;;13.52;10.27;;;;;;;19.44;95.28;101312.69;4985438;28;20149;-60
2022/08/25 05:16:19;;;;;;;16.60;12.25;;;;;;;19.45;95.67;101314.41;4989486;28;20046;-61
2022/08/25 05:18:46;;;;;;;12.15;9.80;;;;;;;19.42;95.57;101316.50;4999117;28;20054;-63
2022/08/25 05:21:16;;;;;;;14.40;10.77;;;;;;;19.44;95.57;101314.53;5006907;28;20657;-63
2022/08/25 05:23:45;;;;;;;15.40;10.30;;;;;;;19.44;95.63;101320.72;4995562;28;20054;-64
2022/08/25 05:26:18;;;;;;;13.93;11.30;;;;;;;19.42;95.84;101324.50;5003383;28;20046;-62
2022/08/25 05:28:49;;;;;;;16.83;11.55;;;;;;;19.45;96.27;101324.22;4988155;28;20058;-65
2022/08/25 05:31:17;;;;;;;12.38;11.02;;;;;;;19.48;96.58;101326.63;4989318;28;20081;-65
2022/08/25 05:33:44;;;;;;;15.32;11.35;;;;;;;19.49;97.08;101331.00;4999951;28;20041;-63
2022/08/25 05:36:13;;;;;;;14.57;11.18;;;;;;;19.46;98.52;101342.81;4991865;28;20042;-65
2022/08/25 05:38:40;;;;;;;10.68;9.48;;;;;;;19.49;98.22;101339.84;4990584;28;20145;-64
2022/08/25 05:41:17;;;;;;;11.75;9.55;;;;;;;19.54;97.70;101347.47;4988738;28;20149;-65
2022/08/25 05:43:46;;;;;;;11.32;8.73;;;;;;;19.54;97.27;101347.47;5008932;28;20083;-64
2022/08/25 05:46:15;;;;;;;12.20;9.75;;;;;;;19.57;96.43;101343.69;5004857;28;20046;-64
2022/08/25 05:48:42;;;;;;;12.68;9.18;;;;;;;19.59;96.06;101342.59;4988286;28;20054;-65
2022/08/25 05:51:11;;;;;;;13.07;9.27;;;;;;;19.62;95.67;101345.03;5008614;28;20313;-64
2022/08/25 05:53:41;;;;;;;16.02;12.73;;;;;;;19.66;95.68;101343.78;4985476;28;20050;-63
2022/08/25 05:56:08;;;;;;;13.93;10.20;;;;;;;19.65;97.53;101343.94;5009184;28;20038;-63
2022/08/25 05:58:36;;;;;;;16.20;12.38;;;;;;;19.66;96.98;101340.28;4990455;28;20050;-61
2022/08/25 06:03:53;;;;;;;15.55;12.50;;;;;;;19.66;98.47;101341.13;5000653;28;20503;-63
2022/08/25 06:06:22;;;;;;;21.70;14.57;;;;;;;19.66;99.78;101337.59;4988853;28;20521;-62
2022/08/25 06:08:49;;;;;;;20.58;15.85;;;;;;;19.66;100.00;101338.44;4988960;28;20053;-64
2022/08/25 06:11:17;;;;;;;19.27;14.55;;;;;;;19.65;100.00;101333.25;5003407;28;20057;-62
2022/08/25 06:13:45;;;;;;;16.92;12.38;;;;;;;19.64;100.00;101335.06;5005979;28;21677;-62
2022/08/25 06:16:12;;;;;;;17.42;13.02;;;;;;;19.68;100.00;101335.66;5004381;28;20054;-62
2022/08/25 06:18:39;;;;;;;24.98;15.65;;;;;;;19.70;100.00;101339.88;4989319;28;20065;-63
2022/08/25 06:21:09;;;;;;;15.05;11.32;;;;;;;19.70;100.00;101333.69;5005881;28;20061;-62
2022/08/25 06:23:36;;;;;;;17.08;12.80;;;;;;;19.77;100.00;101328.66;5002706;28;20451;-64
2022/08/25 06:26:03;;;;;;;22.55;14.65;;;;;;;19.80;100.00;101329.25;4999607;28;20042;-63
2022/08/25 06:28:30;;;;;;;21.40;14.82;;;;;;;19.83;100.00;101331.66;4987419;28;20053;-63
2022/08/25 06:30:59;;;;;;;19.42;14.23;;;;;;;19.86;100.00;101325.22;5002131;28;20506;-65
2022/08/25 06:33:26;;;;;;;23.75;15.50;;;;;;;19.89;100.00;101320.41;5008511;28;20046;-64
2022/08/25 06:35:57;;;;;;;19.85;14.38;;;;;;;19.91;100.00;101331.00;5005849;28;20414;-63
2022/08/25 06:38:24;;;;;;;19.35;14.88;;;;;;;19.95;100.00;101325.25;5006080;28;20054;-64
2022/08/25 06:40:52;;;;;;;17.95;12.02;;;;;;;19.97;100.00;101339.31;4985341;28;20057;-63
2022/08/25 06:43:20;;;;;;;14.98;11.10;;;;;;;20.02;100.00;101332.72;5002917;28;20419;-60
2022/08/25 06:45:47;;;;;;;20.33;13.77;;;;;;;20.11;100.00;101339.94;4987591;28;20058;-64
2022/08/25 06:48:15;;;;;;;17.75;13.60;;;;;;;20.15;99.98;101342.19;5007031;28;20352;-64
2022/08/25 06:50:43;;;;;;;18.83;14.43;;;;;;;20.17;100.00;101347.41;5001119;28;20058;-63
2022/08/25 06:53:11;;;;;;;18.63;12.85;;;;;;;20.19;99.86;101346.31;5007244;28;20049;-64
2022/08/25 06:55:38;;;;;;;21.42;14.05;;;;;;;20.21;100.00;101348.81;5005020;28;20409;-63
2022/08/25 06:58:06;;;;;;;22.17;14.75;;;;;;;20.20;100.00;101353.34;5002358;28;20057;-62
2022/08/25 07:00:37;;;;;;;16.35;13.10;;;;;;;20.26;100.00;101353.78;5003873;28;20061;-65
2022/08/25 07:03:04;;;;;;;23.15;15.30;;;;;;;20.31;99.75;101348.84;5000330;28;20129;-63
2022/08/25 07:05:33;;;;;;;19.98;13.90;;;;;;;20.36;99.88;101349.31;5005403;28;20042;-65
2022/08/25 07:08:10;;;;;;;20.58;14.60;;;;;;;20.39;100.00;101349.03;4987617;28;20046;-63
2022/08/25 07:10:38;;;;;;;21.23;14.50;;;;;;;20.42;100.00;101338.91;5002459;28;20066;-63
2022/08/25 07:13:05;;;;;;;15.15;12.18;;;;;;;20.45;100.00;101341.31;5001798;28;20437;-63
2022/08/25 07:15:37;;;;;;;20.08;13.15;;;;;;;20.48;100.00;101334.88;5002346;28;20045;-63
2022/08/25 07:18:04;;;;;;;20.55;14.63;;;;;;;20.54;100.00;101339.69;4988216;28;20509;-63
2022/08/25 07:20:35;;;;;;;21.67;14.13;;;;;;;20.59;100.00;101331.25;5000836;28;20054;-65
2022/08/25 07:23:02;;;;;;;19.67;13.88;;;;;;;20.67;99.00;101340.28;5001321;28;20053;-65
2022/08/25 07:25:29;;;;;;;20.85;13.95;;;;;;;20.73;99.11;101331.69;4983170;28;20054;-64
2022/08/25 07:27:57;;;;;;;24.88;15.50;;;;;;;20.82;98.52;101334.50;5000348;28;20045;-62
2022/08/25 07:30:25;;;;;;;19.20;13.75;;;;;;;20.89;98.32;101330.28;4988090;28;20061;-63
2022/08/25 07:32:52;;;;;;;23.50;17.17;;;;;;;20.98;98.03;101322.28;5003581;28;20072;-65
2022/08/25 07:35:32;;;;;;;23.38;15.20;;;;;;;21.05;98.71;101325.22;4989133;28;20129;-64
2022/08/25 07:38:05;;;;;;;24.50;15.25;;;;;;;21.11;99.12;101321.13;5002296;28;20064;-63
2022/08/25 07:40:36;;;;;;;23.92;15.63;;;;;;;21.15;99.28;101318.00;4981766;28;20137;-66
2022/08/25 07:43:09;;;;;;;22.60;14.98;;;;;;;21.19;100.00;101316.75;5000664;28;20088;-62
2022/08/25 07:45:38;;;;;;;25.25;16.20;;;;;;;21.20;100.00;101315.75;5006287;28;20445;-64
2022/08/25 07:48:18;;;;;;;22.40;14.85;;;;;;;21.26;100.00;101326.91;4986296;28;20057;-64
2022/08/25 07:50:46;;;;;;;25.27;16.60;;;;;;;21.30;99.88;101330.97;5008050;28;20061;-63
2022/08/25 07:53:15;;;;;;;23.77;15.93;;;;;;;21.31;100.00;101328.19;5011793;28;20061;-64
2022/08/25 07:55:43;;;;;;;22.90;16.88;;;;;;;21.36;100.00;101333.97;5006982;28;20636;-63
2022/08/25 07:58:11;;;;;;;25.95;16.70;;;;;;;21.42;99.93;101324.50;5007135;28;20055;-64
2022/08/25 08:00:40;;;;;;;28.73;16.90;;;;;;;21.50;99.20;101324.63;5008762;28;20061;-60
2022/08/25 08:03:09;;;;;;;25.23;15.40;;;;;;;21.60;98.51;101324.59;5004528;28;20049;-63
2022/08/25 08:05:50;;;;;;;24.73;16.05;;;;;;;21.67;97.41;101321.22;5006255;28;20046;-64
2022/08/25 08:08:17;;;;;;;20.40;14.75;;;;;;;21.77;97.55;101323.00;5008183;28;20045;-64
2022/08/25 08:10:45;;;;;;;21.92;14.15;;;;;;;21.86;96.94;101327.50;4993144;28;20065;-64
2022/08/25 08:13:32;;;;;;;23.15;15.45;;;;;;;21.93;95.95;101332.13;5008497;28;20065;-65
2022/08/25 08:16:10;;;;;;;20.77;15.93;;;;;;;21.99;95.92;101318.13;4993144;28;20033;-64
2022/08/25 08:18:41;;;;;;;24.05;16.85;;;;;;;22.04;96.70;101319.53;5007949;28;20053;-64
2022/08/25 08:21:18;;;;;;;19.73;15.20;;;;;;;22.06;96.52;101322.88;5008886;28;20050;-64
2022/08/25 08:23:47;;;;;;;19.42;15.18;;;;;;;22.12;96.39;101325.03;5010865;28;20054;-65
2022/08/25 08:26:15;;;;;;;22.05;15.63;;;;;;;22.21;95.61;101321.44;5007936;28;20058;-64
2022/08/25 08:28:44;;;;;;;20.13;14.27;;;;;;;22.31;95.99;101316.88;4986311;28;20072;-63
2022/08/25 08:31:19;;;;;;;18.55;14.88;;;;;;;22.42;95.76;101318.50;5006329;28;20046;-64
2022/08/25 08:33:48;;;;;;;17.13;13.02;;;;;;;22.55;94.91;101310.94;4993381;28;20053;-64
2022/08/25 08:36:17;;;;;;;13.70;11.88;;;;;;;22.66;94.45;101297.31;5000809;28;20050;-64
2022/08/25 08:38:45;;;;;;;18.63;13.07;;;;;;;22.71;94.68;101305.72;4989572;28;20352;-64
2022/08/25 08:44:45;;;;;;;18.60;13.00;;;;;;;22.93;92.81;101293.72;4991566;28;20134;-65
2022/08/25 08:47:37;;;;;;;15.10;10.60;;;;;;;23.04;92.07;101291.78;4986422;28;20038;-63
2022/08/25 08:50:33;;;;;;;17.55;11.35;;;;;;;23.10;92.18;101300.09;4987489;28;20042;-65
2022/08/25 08:53:06;;;;;;;14.20;10.55;;;;;;;23.14;92.32;101308.66;4973454;28;20058;-63
2022/08/25 08:56:00;;;;;;;10.32;8.90;;;;;;;23.19;92.16;101301.84;4992844;28;20556;-64
2022/08/25 08:58:49;;;;;;;11.13;8.57;;;;;;;23.21;91.64;101299.81;4989002;28;20054;-66
2022/08/25 09:01:40;;;;;;;13.00;11.23;;;;;;;23.24;91.33;101304.06;4991793;28;20545;-66
2022/08/25 09:04:11;;;;;;;18.15;9.98;;;;;;;23.32;91.10;101300.56;4996376;28;20053;-65
2022/08/25 09:06:44;;;;;;;18.30;10.30;;;;;;;23.39;91.09;101298.94;4988187;28;20057;-65
2022/08/25 09:09:14;;;;;;;13.80;9.25;;;;;;;23.40;90.88;101297.94;4988994;28;20050;-64
2022/08/25 09:11:51;;;;;;;;;;;;;;;23.43;90.02;101298.47;4991136;28;20529;-64
2022/08/25 09:14:49;;;;;;;15.88;8.68;;;;;;;23.47;89.47;101302.53;4983102;28;19922;-65
2022/08/25 09:17:25;;;;;;;12.82;8.32;;;;;;;23.53;88.71;101303.75;4987926;28;20057;-64
2022/08/25 09:20:11;;;;;;;8.60;7.63;;;;;;;23.54;88.62;101291.13;4984206;28;20054;-64
2022/08/25 09:22:55;;;;;;;8.05;7.18;;;;;;;23.60;88.10;101287.84;4983627;28;20589;-62
2022/08/25 09:25:34;;;;;;;9.15;7.13;;;;;;;23.64;87.85;101290.09;4983157;28;20042;-64
2022/08/25 09:28:25;;;;;;;11.75;8.57;;;;;;;23.68;87.41;101290.56;4966523;28;20050;-63
2022/08/25 09:31:04;;;;;;;14.68;8.30;;;;;;;23.71;87.47;101292.97;4984845;28;20054;-62
2022/08/25 09:33:33;;;;;;;13.75;7.63;;;;;;;23.65;87.19;101289.06;4963916;28;20060;-64
2022/08/25 09:36:03;;;;;;;9.23;6.38;;;;;;;23.64;87.24;101284.69;4989175;28;20417;-65
2022/08/25 09:38:32;;;;;;;11.50;8.63;;;;;;;23.60;87.23;101286.00;4994284;28;20058;-65
2022/08/25 09:41:00;;;;;;;9.88;7.57;;;;;;;23.57;87.53;101282.78;4986966;28;20055;-65
2022/08/25 09:43:28;;;;;;;10.57;6.95;;;;;;;23.60;87.45;101287.84;4993317;28;20061;-65
2022/08/25 09:46:02;;;;;;;10.45;6.95;;;;;;;23.70;86.93;101280.53;4989793;28;20042;-66
2022/08/25 09:48:42;;;;;;;8.13;7.33;;;;;;;23.82;86.46;101273.00;4985121;28;20042;-65
2022/08/25 09:51:17;;;;;;;10.73;7.47;;;;;;;23.85;86.35;101275.38;4983862;28;20990;-63
2022/08/25 09:54:14;;;;;;;12.45;9.20;;;;;;;23.96;85.74;101277.81;4996763;28;20042;-64
2022/08/25 09:56:50;;;;;;;10.02;6.45;;;;;;;24.00;85.83;101274.63;4993114;28;20050;-66
2022/08/25 09:59:35;;;;;;;8.05;6.93;;;;;;;24.13;85.44;101268.75;4983976;28;20046;-66
2022/08/25 10:02:10;;;;;;;12.10;7.57;;;;;;;24.23;84.76;101274.03;4996358;28;20127;-66
2022/08/25 10:04:41;;;;;;;15.27;7.95;;;;;;;24.29;84.55;101273.38;4989638;28;20061;-65
2022/08/25 10:07:24;;;;;;;8.95;6.22;;;;;;;24.39;83.96;101273.25;4986963;28;20061;-65
2022/08/25 10:09:58;;;;;;;10.00;6.35;;;;;;;24.53;83.06;101267.22;4983833;28;20046;-65
2022/08/25 10:12:35;;;;;;;15.05;6.95;;;;;;;24.61;82.54;101266.41;4991420;28;20060;-66
2022/08/25 10:15:22;;;;;;;8.43;5.78;;;;;;;24.66;82.12;101256.81;4970805;28;20085;-65
2022/08/25 10:18:19;;;;;;;10.65;6.28;;;;;;;24.65;81.85;101259.66;4989015;28;20058;-66
2022/08/25 10:21:13;;;;;;;16.40;6.90;;;;;;;24.70;81.62;101258.16;4987046;28;20089;-66
2022/08/25 10:23:47;;;;;;;11.68;6.20;;;;;;;24.75;81.72;101247.72;4989208;28;20068;-64
2022/08/25 10:26:46;;;;;;;12.02;6.75;;;;;;;24.74;81.23;101250.59;4992044;28;20058;-66
2022/08/25 10:29:25;;;;;;;12.85;6.80;;;;;;;24.74;80.84;101256.81;4982617;28;20054;-65
2022/08/25 10:31:56;;;;;;;12.70;6.68;;;;;;;24.76;80.68;101251.25;4980764;28;20074;-65
2022/08/25 10:34:33;;;;;;;9.95;6.00;;;;;;;24.84;80.51;101250.41;4972130;28;20538;-66
2022/08/25 10:37:26;;;;;;;8.25;5.80;;;;;;;25.00;79.81;101256.66;4960450;28;20058;-66
2022/08/25 10:40:20;;;;;;;12.65;6.13;;;;;;;25.13;79.11;101245.41;4982543;28;20050;-66
2022/08/25 10:42:56;;;;;;;9.93;5.75;;;;;;;25.23;78.52;101248.75;4966633;28;20087;-65
2022/08/25 10:45:44;;;;;;;11.38;6.47;;;;;;;25.34;78.34;101246.69;4981696;28;20050;-65
2022/08/25 10:48:33;;;;;;;17.15;6.78;;;;;;;25.46;78.23;101239.94;4986938;28;20046;-64
2022/08/25 10:51:28;;;;;;;13.00;6.25;;;;;;;25.55;77.86;101222.72;4981119;28;20062;-66
2022/08/25 10:54:17;;;;;;;7.00;5.93;;;;;;;25.60;77.10;101225.72;4986206;28;20430;-66
2022/08/25 10:57:21;;;;;;;14.65;7.10;;;;;;;25.72;76.50;101218.09;4979777;28;20050;-66
2022/08/25 11:00:10;;;;;;;8.57;5.43;;;;;;;25.81;76.08;101214.41;4986074;28;20537;-67
2022/08/25 11:02:44;;;;;;;13.40;5.38;;;;;;;25.85;75.40;101206.75;4984934;28;20047;-66
2022/08/25 11:05:22;;;;;;;15.07;6.32;;;;;;;25.86;74.76;101209.31;4989091;28;20055;-66
2022/08/25 11:07:57;;;;;;;11.18;5.82;;;;;;;26.00;74.48;101199.63;4974637;28;20050;-65
2022/08/25 11:10:37;;;;;;;8.10;5.55;;;;;;;26.04;74.01;101200.94;4987482;28;20054;-65
2022/08/25 11:13:14;;;;;;;12.70;5.97;;;;;;;26.04;73.49;101205.50;4985838;28;20046;-66
2022/08/25 11:15:55;;;;;;;9.25;5.13;;;;;;;26.05;73.54;101204.50;4970582;28;20137;-66
2022/08/25 11:19:06;;;;;;;10.48;4.65;;;;;;;26.10;73.06;101199.41;4984406;28;20545;-65
2022/08/25 11:21:52;;;;;;;13.75;6.03;;;;;;;26.20;73.26;101205.41;4977856;28;20054;-64
2022/08/25 11:24:41;;;;;;;11.73;5.20;;;;;;;26.26;72.26;101197.44;4988240;28;20046;-65
2022/08/25 11:27:16;;;;;;;10.77;5.63;;;;;;;26.41;71.77;101184.00;4982404;28;20057;-64
2022/08/25 11:29:52;;;;;;;13.30;6.53;;;;;;;26.52;71.63;101180.06;4980981;28;20054;-64
2022/08/25 11:32:19;;;;;;;12.98;4.68;;;;;;;26.62;71.09;101179.81;4973129;28;20058;-66
2022/08/25 11:34:46;;;;;;;7.95;4.65;;;;;;;26.66;70.29;101179.28;4989819;28;20069;-65
2022/08/25 11:37:21;;;;;;;9.27;5.25;;;;;;;26.73;69.57;101174.81;5001967;28;20045;-64
2022/08/25 11:39:59;;;;;;;11.82;4.72;;;;;;;26.84;69.40;101170.84;4990993;28;20430;-65
2022/08/25 11:42:41;;;;;;;9.93;5.30;;;;;;;26.83;68.70;101174.53;4990797;28;20076;-65
2022/08/25 11:45:21;;;;;;;12.52;5.38;;;;;;;26.92;68.90;101175.31;4990240;28;20602;-65
2022/08/25 11:48:07;;;;;;;11.13;5.18;;;;;;;26.99;68.50;101169.00;4986173;28;20051;-65
2022/08/25 11:50:53;;;;;;;12.45;5.38;;;;;;;26.99;68.60;101176.25;4988051;28;20433;-63